createdAt,value
2022-07-27T00:02:03.589Z,100.00
2022-07-27T00:04:50.543Z,100.00
2022-07-27T00:07:38.708Z,100.00
2022-07-27T00:10:25.127Z,100.00
2022-07-27T00:13:11.932Z,100.00
2022-07-27T00:15:59.050Z,100.00
2022-07-27T00:18:45.523Z,100.00
2022-07-27T00:21:32.324Z,99.34
2022-07-27T00:24:20.488Z,99.56
2022-07-27T00:27:08.320Z,98.08
2022-07-27T00:29:58.873Z,96.56
2022-07-27T00:32:46.728Z,97.99
2022-07-27T00:35:33.431Z,99.81
2022-07-27T00:38:22.474Z,100.00
2022-07-27T00:41:11.340Z,100.00
2022-07-27T00:43:59.157Z,100.00
2022-07-27T00:46:45.632Z,100.00
2022-07-27T00:49:32.391Z,100.00
2022-07-27T00:52:19.642Z,100.00
2022-07-27T00:55:08.567Z,100.00
2022-07-27T00:57:59.548Z,100.00
2022-07-27T01:00:46.929Z,100.00
2022-07-27T01:03:33.445Z,100.00
2022-07-27T01:06:27.012Z,100.00
2022-07-27T01:09:31.512Z,100.00
2022-07-27T01:12:21.718Z,100.00
2022-07-27T01:15:10.897Z,100.00
2022-07-27T01:17:57.755Z,100.00
2022-07-27T01:20:44.613Z,100.00
2022-07-27T01:23:33.647Z,100.00
2022-07-27T01:26:20.005Z,100.00
2022-07-27T01:29:08.953Z,100.00
2022-07-27T01:31:57.649Z,100.00
2022-07-27T01:34:45.045Z,100.00
2022-07-27T01:37:33.905Z,100.00
2022-07-27T01:40:22.949Z,100.00
2022-07-27T01:43:10.057Z,100.00
2022-07-27T01:45:57.101Z,100.00
2022-07-27T01:48:43.828Z,100.00
2022-07-27T01:51:30.452Z,100.00
2022-07-27T01:54:17.256Z,100.00
2022-07-27T01:57:05.676Z,100.00
2022-07-27T01:59:53.888Z,100.00
2022-07-27T02:02:41.348Z,100.00
2022-07-27T02:05:28.413Z,100.00
2022-07-27T02:08:15.224Z,100.00
2022-07-27T02:11:19.828Z,100.00
2022-07-27T02:14:07.792Z,100.00
2022-07-27T02:16:54.672Z,100.00
2022-07-27T02:19:42.164Z,100.00
2022-07-27T02:22:29.332Z,100.00
2022-07-27T02:25:19.015Z,100.00
2022-07-27T02:28:06.171Z,100.00
2022-07-27T02:30:55.748Z,100.00
2022-07-27T02:33:42.548Z,100.00
2022-07-27T02:36:30.045Z,100.00
2022-07-27T02:39:16.910Z,100.00
2022-07-27T02:42:05.440Z,100.00
2022-07-27T02:44:52.885Z,100.00
2022-07-27T02:47:41.806Z,100.00
2022-07-27T02:50:29.924Z,100.00
2022-07-27T02:53:17.240Z,100.00
2022-07-27T02:56:04.180Z,100.00
2022-07-27T02:58:51.131Z,100.00
2022-07-27T03:01:39.613Z,100.00
2022-07-27T03:04:28.063Z,100.00
2022-07-27T03:07:14.947Z,100.00
2022-07-27T03:10:01.993Z,100.00
2022-07-27T03:12:48.505Z,100.00
2022-07-27T03:15:35.643Z,100.00
2022-07-27T03:18:22.058Z,100.00
2022-07-27T03:21:10.156Z,100.00
2022-07-27T03:23:57.895Z,100.00
2022-07-27T03:26:44.624Z,100.00
2022-07-27T03:29:31.503Z,100.00
2022-07-27T03:32:18.354Z,100.00
2022-07-27T03:35:05.518Z,100.00
2022-07-27T03:37:53.847Z,100.00
2022-07-27T03:40:41.711Z,100.00
2022-07-27T03:43:28.254Z,100.00
2022-07-27T03:46:15.073Z,100.00
2022-07-27T03:49:02.124Z,100.00
2022-07-27T03:52:01.312Z,100.00
2022-07-27T03:54:49.637Z,100.00
2022-07-27T03:57:36.113Z,100.00
2022-07-27T04:00:23.400Z,100.00
2022-07-27T04:03:09.945Z,100.00
2022-07-27T04:05:56.762Z,100.00
2022-07-27T04:08:43.442Z,100.00
2022-07-27T04:11:31.519Z,100.00
2022-07-27T04:14:18.382Z,100.00
2022-07-27T04:17:05.111Z,100.00
2022-07-27T04:19:51.880Z,100.00
2022-07-27T04:22:38.434Z,100.00
2022-07-27T04:25:25.213Z,100.00
2022-07-27T04:28:13.198Z,100.00
2022-07-27T04:31:00.153Z,100.00
2022-07-27T04:33:47.047Z,100.00
2022-07-27T04:36:33.635Z,100.00
2022-07-27T04:39:20.659Z,100.00
2022-07-27T04:42:07.771Z,100.00
2022-07-27T04:44:55.591Z,100.00
2022-07-27T04:47:42.360Z,100.00
2022-07-27T04:50:29.235Z,100.00
2022-07-27T04:53:18.094Z,100.00
2022-07-27T04:56:04.961Z,100.00
2022-07-27T04:58:52.857Z,100.00
2022-07-27T05:01:43.714Z,100.00
2022-07-27T05:04:32.580Z,100.00
2022-07-27T05:07:19.775Z,100.00
2022-07-27T05:10:08.494Z,100.00
2022-07-27T05:12:56.918Z,100.00
2022-07-27T05:15:54.117Z,100.00
2022-07-27T05:18:43.642Z,98.41
2022-07-27T05:21:30.331Z,97.37
2022-07-27T05:24:17.016Z,96.90
2022-07-27T05:27:06.391Z,96.46
2022-07-27T05:29:53.030Z,98.35
2022-07-27T05:32:43.946Z,100.00
2022-07-27T05:35:32.273Z,100.00
2022-07-27T05:38:18.993Z,100.00
2022-07-27T05:41:11.426Z,99.10
2022-07-27T05:43:57.819Z,97.17
2022-07-27T05:46:44.745Z,94.97
2022-07-27T05:49:32.147Z,94.03
2022-07-27T05:52:20.997Z,95.02
2022-07-27T05:55:08.596Z,97.09
2022-07-27T05:57:55.669Z,100.00
2022-07-27T06:00:43.869Z,100.00
2022-07-27T06:03:31.214Z,100.00
2022-07-27T06:06:44.394Z,100.00
2022-07-27T06:09:35.756Z,100.00
2022-07-27T06:12:23.055Z,100.00
2022-07-27T06:15:19.767Z,100.00
2022-07-27T06:18:09.133Z,97.95
2022-07-27T06:20:55.973Z,96.21
2022-07-27T06:23:42.912Z,93.86
2022-07-27T06:26:31.017Z,91.90
2022-07-27T06:29:17.647Z,89.06
2022-07-27T06:32:04.670Z,88.55
2022-07-27T06:34:51.861Z,88.78
2022-07-27T06:37:44.120Z,89.89
2022-07-27T06:40:32.301Z,89.66
2022-07-27T06:43:21.196Z,89.80
2022-07-27T06:46:12.615Z,90.30
2022-07-27T06:49:00.227Z,88.32
2022-07-27T06:51:46.903Z,90.31
2022-07-27T06:54:33.643Z,86.23
2022-07-27T06:57:20.408Z,85.88
2022-07-27T07:00:10.334Z,86.22
2022-07-27T07:02:59.291Z,86.66
2022-07-27T07:05:47.408Z,84.68
2022-07-27T07:08:34.233Z,84.85
2022-07-27T07:11:21.169Z,81.87
2022-07-27T07:14:07.747Z,79.43
2022-07-27T07:16:56.074Z,80.36
2022-07-27T07:19:42.484Z,82.65
2022-07-27T07:22:29.593Z,81.53
2022-07-27T07:25:16.236Z,80.30
2022-07-27T07:28:03.295Z,77.93
2022-07-27T07:30:50.025Z,78.48
2022-07-27T07:33:37.716Z,81.02
2022-07-27T07:36:24.641Z,82.79
2022-07-27T07:39:12.486Z,79.40
2022-07-27T07:41:59.449Z,78.87
2022-07-27T07:44:46.230Z,77.59
2022-07-27T07:47:32.905Z,78.74
2022-07-27T07:50:22.204Z,77.55
2022-07-27T07:53:09.086Z,76.50
2022-07-27T07:55:56.900Z,79.26
2022-07-27T07:58:43.355Z,79.43
2022-07-27T08:01:30.124Z,78.20
2022-07-27T08:04:16.741Z,76.77
2022-07-27T08:07:06.349Z,78.48
2022-07-27T08:09:52.721Z,78.76
2022-07-27T08:12:42.401Z,82.00
2022-07-27T08:15:35.880Z,83.60
2022-07-27T08:18:22.935Z,80.50
2022-07-27T08:21:09.568Z,76.22
2022-07-27T08:23:58.810Z,74.35
2022-07-27T08:26:49.598Z,74.93
2022-07-27T08:29:36.744Z,71.32
2022-07-27T08:32:25.155Z,71.09
2022-07-27T08:35:18.751Z,71.17
2022-07-27T08:38:09.464Z,69.66
2022-07-27T08:40:58.020Z,67.74
2022-07-27T08:43:45.119Z,65.22
2022-07-27T08:46:33.182Z,64.81
2022-07-27T08:49:20.373Z,60.67
2022-07-27T08:52:08.000Z,67.18
2022-07-27T08:54:54.510Z,70.09
2022-07-27T08:57:42.646Z,72.27
2022-07-27T09:00:30.010Z,72.18
2022-07-27T09:03:20.086Z,71.26
2022-07-27T09:06:07.601Z,72.13
2022-07-27T09:09:00.211Z,71.59
2022-07-27T09:12:04.965Z,69.14
2022-07-27T09:14:53.394Z,69.03
2022-07-27T09:17:48.598Z,67.45
2022-07-27T09:20:39.455Z,68.67
2022-07-27T09:23:28.332Z,69.16
2022-07-27T09:26:31.237Z,69.31
2022-07-27T09:29:19.670Z,72.70
2022-07-27T09:32:16.668Z,70.37
2022-07-27T09:35:17.026Z,72.07
2022-07-27T09:38:25.607Z,70.94
2022-07-27T09:41:14.407Z,70.19
2022-07-27T09:47:26.741Z,72.97
2022-07-27T09:50:20.548Z,73.85
2022-07-27T09:53:41.461Z,74.07
2022-07-27T09:56:30.338Z,71.58
2022-07-27T09:59:19.707Z,73.55
2022-07-27T10:02:06.738Z,71.24
2022-07-27T10:04:55.243Z,71.66
2022-07-27T10:07:41.973Z,71.61
2022-07-27T10:10:28.757Z,70.45
2022-07-27T10:13:15.505Z,71.57
2022-07-27T10:16:04.878Z,69.86
2022-07-27T10:18:59.900Z,68.89
2022-07-27T10:21:50.039Z,67.38
2022-07-27T10:24:37.306Z,66.93
2022-07-27T10:27:29.053Z,70.28
2022-07-27T10:30:27.643Z,71.66
2022-07-27T10:33:16.757Z,70.32
2022-07-27T10:36:04.907Z,71.49
2022-07-27T10:38:56.522Z,70.59
2022-07-27T10:41:44.054Z,70.12
2022-07-27T10:44:31.578Z,70.93
2022-07-27T10:47:31.017Z,72.08
2022-07-27T10:50:31.263Z,72.18
2022-07-27T10:53:18.697Z,72.50
2022-07-27T10:56:08.151Z,73.30
2022-07-27T10:58:54.973Z,71.45
2022-07-27T11:01:57.746Z,70.99
2022-07-27T11:04:46.079Z,67.39
2022-07-27T11:07:44.036Z,69.62
2022-07-27T11:10:44.768Z,71.05
2022-07-27T11:13:38.655Z,70.58
2022-07-27T11:16:27.903Z,69.27
2022-07-27T11:19:17.195Z,70.14
2022-07-27T11:22:04.810Z,67.07
2022-07-27T11:24:51.896Z,67.55
2022-07-27T11:27:47.560Z,64.54
2022-07-27T11:30:35.655Z,68.19
2022-07-27T11:33:23.035Z,68.25
2022-07-27T11:36:19.674Z,68.87
2022-07-27T11:39:14.559Z,67.41
2022-07-27T11:42:11.515Z,67.91
2022-07-27T11:44:58.548Z,70.78
2022-07-27T11:47:57.540Z,71.34
2022-07-27T11:50:58.440Z,69.97
2022-07-27T11:53:45.220Z,68.35
2022-07-27T11:56:34.098Z,70.48
2022-07-27T11:59:21.756Z,70.09
2022-07-27T12:02:10.076Z,66.67
2022-07-27T12:05:02.916Z,65.05
2022-07-27T12:07:52.779Z,63.94
2022-07-27T12:10:39.594Z,64.57
2022-07-27T12:13:33.533Z,66.51
2022-07-27T12:16:40.692Z,65.66
2022-07-27T12:19:28.935Z,65.15
2022-07-27T12:22:24.527Z,64.15
2022-07-27T12:25:25.448Z,63.39
2022-07-27T12:28:14.397Z,65.17
2022-07-27T12:31:01.366Z,57.01
2022-07-27T12:33:48.313Z,63.58
2022-07-27T12:36:35.094Z,63.28
2022-07-27T12:39:30.451Z,61.06
2022-07-27T12:42:17.094Z,61.39
2022-07-27T12:45:18.914Z,58.95
2022-07-27T12:48:09.893Z,57.59
2022-07-27T12:51:01.968Z,59.75
2022-07-27T12:53:48.555Z,57.45
2022-07-27T12:56:36.690Z,57.11
2022-07-27T12:59:23.845Z,58.29
2022-07-27T13:02:10.263Z,59.66
2022-07-27T13:04:57.080Z,60.15
2022-07-27T13:07:46.141Z,61.22
2022-07-27T13:10:33.375Z,61.75
2022-07-27T13:13:24.652Z,59.86
2022-07-27T13:16:11.756Z,61.78
2022-07-27T13:18:58.348Z,60.65
2022-07-27T13:21:45.087Z,58.49
2022-07-27T13:24:32.188Z,60.07
2022-07-27T13:27:18.537Z,60.33
2022-07-27T13:30:09.570Z,61.06
2022-07-27T13:32:56.974Z,62.80
2022-07-27T13:35:43.796Z,59.79
2022-07-27T13:38:33.596Z,60.78
2022-07-27T13:41:20.168Z,62.09
2022-07-27T13:44:08.652Z,62.30
2022-07-27T13:46:58.311Z,62.79
2022-07-27T13:49:45.528Z,62.38
2022-07-27T13:52:32.211Z,61.79
2022-07-27T13:55:20.703Z,60.71
2022-07-27T13:58:11.936Z,60.38
2022-07-27T14:01:02.776Z,60.73
2022-07-27T14:03:55.111Z,61.78
2022-07-27T14:06:42.152Z,60.96
2022-07-27T14:09:42.838Z,59.79
2022-07-27T14:12:29.420Z,60.27
2022-07-27T14:15:16.637Z,59.46
2022-07-27T14:18:03.267Z,60.39
2022-07-27T14:20:51.418Z,63.47
2022-07-27T14:23:38.481Z,62.74
2022-07-27T14:26:24.929Z,60.19
2022-07-27T14:29:11.625Z,59.37
2022-07-27T14:31:58.607Z,62.40
2022-07-27T14:34:45.152Z,63.43
2022-07-27T14:37:34.350Z,60.90
2022-07-27T14:40:21.428Z,59.77
2022-07-27T14:43:15.030Z,60.73
2022-07-27T14:46:03.049Z,60.73
2022-07-27T14:49:05.617Z,59.56
2022-07-27T14:51:52.924Z,60.00
2022-07-27T14:54:41.129Z,60.72
2022-07-27T14:57:29.785Z,61.01
2022-07-27T15:00:19.313Z,59.51
2022-07-27T15:03:07.325Z,59.08
2022-07-27T15:05:53.986Z,60.29
2022-07-27T15:08:40.713Z,62.48
2022-07-27T15:11:28.804Z,60.18
2022-07-27T15:14:18.588Z,62.09
2022-07-27T15:17:05.911Z,65.14
2022-07-27T15:19:54.189Z,65.85
2022-07-27T15:22:41.423Z,66.95
2022-07-27T15:25:28.287Z,66.74
2022-07-27T15:28:16.824Z,61.09
2022-07-27T15:31:03.499Z,63.92
2022-07-27T15:33:50.189Z,65.36
2022-07-27T15:36:43.703Z,61.58
2022-07-27T15:39:31.339Z,64.03
2022-07-27T15:42:18.193Z,61.55
2022-07-27T15:45:07.351Z,60.99
2022-07-27T15:47:53.827Z,58.00
2022-07-27T15:50:42.917Z,58.81
2022-07-27T15:53:30.084Z,58.27
2022-07-27T15:56:16.784Z,59.99
2022-07-27T15:59:03.277Z,59.06
2022-07-27T16:01:51.406Z,60.66
2022-07-27T16:04:40.094Z,64.83
2022-07-27T16:07:40.714Z,64.69
2022-07-27T16:10:30.682Z,58.39
2022-07-27T16:13:18.798Z,60.25
2022-07-27T16:16:26.124Z,61.67
2022-07-27T16:19:14.508Z,60.58
2022-07-27T16:22:03.821Z,57.44
2022-07-27T16:24:51.164Z,61.21
2022-07-27T16:27:40.689Z,63.00
2022-07-27T16:30:33.996Z,63.82
2022-07-27T16:33:24.767Z,65.34
2022-07-27T16:36:13.112Z,64.76
2022-07-27T16:38:59.988Z,63.60
2022-07-27T16:41:47.364Z,65.41
2022-07-27T16:44:35.574Z,70.24
2022-07-27T16:47:22.501Z,67.19
2022-07-27T16:50:09.802Z,67.04
2022-07-27T16:52:57.819Z,69.10
2022-07-27T16:55:47.202Z,68.49
2022-07-27T16:58:36.601Z,70.52
2022-07-27T17:01:26.155Z,74.17
2022-07-27T17:04:14.217Z,73.66
2022-07-27T17:07:00.583Z,73.01
2022-07-27T17:09:49.104Z,72.84
2022-07-27T17:12:38.844Z,70.76
2022-07-27T17:15:28.717Z,72.91
2022-07-27T17:18:16.219Z,67.58
2022-07-27T17:21:06.128Z,72.29
2022-07-27T17:23:59.063Z,74.04
2022-07-27T17:26:47.595Z,74.93
2022-07-27T17:29:34.462Z,77.40
2022-07-27T17:32:21.199Z,74.83
2022-07-27T17:35:08.724Z,74.61
2022-07-27T17:38:05.996Z,77.11
2022-07-27T17:40:53.177Z,78.23
2022-07-27T17:43:41.795Z,78.87
2022-07-27T17:46:28.786Z,78.93
2022-07-27T17:49:15.943Z,78.32
2022-07-27T17:52:03.315Z,78.28
2022-07-27T17:54:50.108Z,78.38
2022-07-27T17:57:36.872Z,78.49
2022-07-27T18:00:24.929Z,78.46
2022-07-27T18:03:13.069Z,77.81
2022-07-27T18:06:00.390Z,77.42
2022-07-27T18:08:46.866Z,78.59
2022-07-27T18:11:33.706Z,78.24
2022-07-27T18:14:21.654Z,78.49
2022-07-27T18:17:09.625Z,78.96
2022-07-27T18:19:56.369Z,79.28
2022-07-27T18:22:43.763Z,82.88
2022-07-27T18:25:30.722Z,84.88
2022-07-27T18:28:17.811Z,84.29
2022-07-27T18:31:05.252Z,85.50
2022-07-27T18:33:54.555Z,85.62
2022-07-27T18:36:42.584Z,85.60
2022-07-27T18:39:32.408Z,86.34
2022-07-27T18:42:20.537Z,85.51
2022-07-27T18:45:08.443Z,87.45
2022-07-27T18:47:55.403Z,86.66
2022-07-27T18:50:43.467Z,88.28
2022-07-27T18:53:30.294Z,86.83
2022-07-27T18:56:17.291Z,86.58
2022-07-27T18:59:04.114Z,88.03
2022-07-27T19:01:52.415Z,88.87
2022-07-27T19:04:41.716Z,90.73
2022-07-27T19:07:31.027Z,91.03
2022-07-27T19:10:20.921Z,92.83
2022-07-27T19:13:08.597Z,92.45
2022-07-27T19:15:55.027Z,92.38
2022-07-27T19:18:42.115Z,93.17
2022-07-27T19:21:28.606Z,94.11
2022-07-27T19:24:16.664Z,96.16
2022-07-27T19:27:03.590Z,97.41
2022-07-27T19:29:51.507Z,100.00
2022-07-27T19:32:38.161Z,100.00
2022-07-27T19:35:24.917Z,100.00
2022-07-27T19:38:13.222Z,100.00
2022-07-27T19:41:02.250Z,100.00
2022-07-27T19:43:49.003Z,100.00
2022-07-27T19:46:36.292Z,100.00
2022-07-27T19:49:24.235Z,100.00
2022-07-27T19:52:15.527Z,100.00
2022-07-27T19:55:02.015Z,100.00
2022-07-27T19:57:52.544Z,100.00
2022-07-27T20:00:39.673Z,100.00
2022-07-27T20:03:26.756Z,100.00
2022-07-27T20:06:14.815Z,100.00
2022-07-27T20:09:01.652Z,100.00
2022-07-27T20:11:49.785Z,100.00
2022-07-27T20:14:38.798Z,100.00
2022-07-27T20:17:25.565Z,100.00
2022-07-27T20:20:13.518Z,100.00
2022-07-27T20:23:00.431Z,100.00
2022-07-27T20:25:47.107Z,100.00
2022-07-27T20:28:33.787Z,100.00
2022-07-27T20:31:23.293Z,100.00
2022-07-27T20:34:12.436Z,100.00
2022-07-27T20:37:01.936Z,100.00
2022-07-27T20:39:49.511Z,100.00
2022-07-27T20:42:36.025Z,100.00
2022-07-27T20:45:26.914Z,100.00
2022-07-27T20:48:15.116Z,100.00
2022-07-27T20:51:01.885Z,100.00
2022-07-27T20:53:48.996Z,100.00
2022-07-27T20:56:36.053Z,100.00
2022-07-27T20:59:23.149Z,100.00
2022-07-27T21:02:10.083Z,100.00
2022-07-27T21:04:58.741Z,100.00
2022-07-27T21:07:46.592Z,100.00
2022-07-27T21:10:34.020Z,100.00
2022-07-27T21:13:20.453Z,100.00
2022-07-27T21:16:08.707Z,100.00
2022-07-27T21:18:57.165Z,100.00
2022-07-27T21:21:45.775Z,100.00
2022-07-27T21:24:32.264Z,100.00
2022-07-27T21:27:21.323Z,100.00
2022-07-27T21:30:08.929Z,100.00
2022-07-27T21:32:55.703Z,100.00
2022-07-27T21:35:42.663Z,100.00
2022-07-27T21:38:31.108Z,100.00
2022-07-27T21:41:17.907Z,100.00
2022-07-27T21:44:05.591Z,100.00
2022-07-27T21:46:52.964Z,100.00
2022-07-27T21:49:39.793Z,100.00
2022-07-27T21:52:26.898Z,100.00
2022-07-27T21:55:22.768Z,100.00
2022-07-27T21:58:12.272Z,100.00
2022-07-27T22:00:59.015Z,100.00
2022-07-27T22:03:46.107Z,100.00
2022-07-27T22:06:32.595Z,100.00
2022-07-27T22:09:20.213Z,100.00
2022-07-27T22:12:08.801Z,100.00
2022-07-27T22:14:55.511Z,100.00
2022-07-27T22:17:46.016Z,100.00
2022-07-27T22:20:37.094Z,100.00
2022-07-27T22:23:23.852Z,100.00
2022-07-27T22:26:10.824Z,100.00
2022-07-27T22:28:59.101Z,100.00
2022-07-27T22:31:45.848Z,100.00
2022-07-27T22:34:34.356Z,100.00
2022-07-27T22:37:21.673Z,100.00
2022-07-27T22:40:10.547Z,100.00
2022-07-27T22:42:57.484Z,100.00
2022-07-27T22:45:45.888Z,100.00
2022-07-27T22:48:32.781Z,100.00
2022-07-27T22:51:19.587Z,100.00
2022-07-27T22:54:06.389Z,100.00
2022-07-27T22:56:53.506Z,100.00
2022-07-27T22:59:40.250Z,100.00
2022-07-27T23:02:29.239Z,100.00
2022-07-27T23:05:16.334Z,100.00
2022-07-27T23:08:03.050Z,100.00
2022-07-27T23:10:49.808Z,100.00
2022-07-27T23:13:36.996Z,100.00
2022-07-27T23:16:23.959Z,100.00
2022-07-27T23:19:12.343Z,100.00
2022-07-27T23:22:01.504Z,100.00
2022-07-27T23:24:48.711Z,100.00
2022-07-27T23:27:35.861Z,100.00
2022-07-27T23:30:22.812Z,100.00
2022-07-27T23:33:09.546Z,100.00
2022-07-27T23:35:57.740Z,100.00
2022-07-27T23:38:44.415Z,100.00
2022-07-27T23:41:31.129Z,100.00
2022-07-27T23:44:17.841Z,100.00
2022-07-27T23:47:05.693Z,100.00
2022-07-27T23:49:52.227Z,100.00
2022-07-27T23:52:40.540Z,100.00
2022-07-27T23:55:27.407Z,100.00
2022-07-27T23:58:14.294Z,100.00
